sensor_id;sensor_type;location;lat;lon;timestamp;P1;durP1;ratioP1;P2;durP2;ratioP2
70588;SDS011;58152;49.202;18.744;2023-03-14T02:15:18;3.55;;;2.20;;
70588;SDS011;58152;49.202;18.744;2023-03-14T02:18:09;5.07;;;2.95;;
70588;SDS011;58152;49.202;18.744;2023-03-14T02:24:38;3.53;;;2.60;;
70588;SDS011;58152;49.202;18.744;2023-03-14T02:27:57;2.78;;;2.15;;
70588;SDS011;58152;49.202;18.744;2023-03-14T05:39:19;3.65;;;2.47;;
70588;SDS011;58152;49.202;18.744;2023-03-14T05:42:26;2.95;;;2.35;;
70588;SDS011;58152;49.202;18.744;2023-03-14T05:53:16;4.00;;;2.58;;
70588;SDS011;58152;49.202;18.744;2023-03-14T05:59:45;5.63;;;3.22;;
70588;SDS011;58152;49.202;18.744;2023-03-14T07:17:09;3.63;;;2.30;;
70588;SDS011;58152;49.202;18.744;2023-03-14T07:19:46;4.45;;;3.13;;
70588;SDS011;58152;49.202;18.744;2023-03-14T07:22:12;4.50;;;2.67;;
70588;SDS011;58152;49.202;18.744;2023-03-14T07:24:37;4.35;;;2.60;;
70588;SDS011;58152;49.202;18.744;2023-03-14T07:27:02;3.85;;;2.70;;
70588;SDS011;58152;49.202;18.744;2023-03-14T07:29:28;3.97;;;2.85;;
70588;SDS011;58152;49.202;18.744;2023-03-14T07:31:53;4.05;;;2.50;;
70588;SDS011;58152;49.202;18.744;2023-03-14T07:34:19;4.38;;;2.70;;
70588;SDS011;58152;49.202;18.744;2023-03-14T07:36:44;5.97;;;3.22;;
70588;SDS011;58152;49.202;18.744;2023-03-14T07:39:10;3.83;;;2.88;;
70588;SDS011;58152;49.202;18.744;2023-03-14T07:41:35;3.75;;;2.85;;
70588;SDS011;58152;49.202;18.744;2023-03-14T07:44:01;5.20;;;2.75;;
70588;SDS011;58152;49.202;18.744;2023-03-14T07:46:26;4.38;;;3.15;;
70588;SDS011;58152;49.202;18.744;2023-03-14T07:48:51;4.30;;;3.35;;
70588;SDS011;58152;49.202;18.744;2023-03-14T07:51:17;4.03;;;2.88;;
70588;SDS011;58152;49.202;18.744;2023-03-14T07:53:42;4.97;;;3.00;;
70588;SDS011;58152;49.202;18.744;2023-03-14T07:56:09;3.17;;;2.40;;
70588;SDS011;58152;49.202;18.744;2023-03-14T07:58:34;2.92;;;2.28;;
70588;SDS011;58152;49.202;18.744;2023-03-14T08:00:59;2.85;;;2.13;;
70588;SDS011;58152;49.202;18.744;2023-03-14T08:03:25;3.85;;;2.95;;
70588;SDS011;58152;49.202;18.744;2023-03-14T08:05:50;5.43;;;2.78;;
70588;SDS011;58152;49.202;18.744;2023-03-14T08:08:16;3.35;;;2.55;;
70588;SDS011;58152;49.202;18.744;2023-03-14T08:10:42;3.53;;;2.53;;
70588;SDS011;58152;49.202;18.744;2023-03-14T08:13:08;4.97;;;2.95;;
70588;SDS011;58152;49.202;18.744;2023-03-14T08:15:34;3.38;;;2.55;;
70588;SDS011;58152;49.202;18.744;2023-03-14T08:17:59;4.75;;;2.28;;
70588;SDS011;58152;49.202;18.744;2023-03-14T08:20:26;3.65;;;2.70;;
70588;SDS011;58152;49.202;18.744;2023-03-14T08:22:55;3.13;;;2.65;;
70588;SDS011;58152;49.202;18.744;2023-03-14T08:25:24;3.45;;;2.47;;
70588;SDS011;58152;49.202;18.744;2023-03-14T08:27:50;6.78;;;2.70;;
70588;SDS011;58152;49.202;18.744;2023-03-14T08:30:16;5.20;;;2.83;;
70588;SDS011;58152;49.202;18.744;2023-03-14T08:32:42;3.63;;;2.85;;
70588;SDS011;58152;49.202;18.744;2023-03-14T08:35:07;2.85;;;1.98;;
70588;SDS011;58152;49.202;18.744;2023-03-14T08:37:34;2.67;;;2.17;;
70588;SDS011;58152;49.202;18.744;2023-03-14T08:40:00;2.97;;;2.40;;
70588;SDS011;58152;49.202;18.744;2023-03-14T08:42:29;4.95;;;2.75;;
70588;SDS011;58152;49.202;18.744;2023-03-14T08:44:55;4.63;;;2.50;;
70588;SDS011;58152;49.202;18.744;2023-03-14T08:47:20;3.50;;;2.25;;
70588;SDS011;58152;49.202;18.744;2023-03-14T08:49:46;3.20;;;2.80;;
70588;SDS011;58152;49.202;18.744;2023-03-14T08:52:11;3.80;;;2.13;;
70588;SDS011;58152;49.202;18.744;2023-03-14T08:54:41;3.10;;;2.75;;
70588;SDS011;58152;49.202;18.744;2023-03-14T08:57:08;4.95;;;3.15;;
70588;SDS011;58152;49.202;18.744;2023-03-14T08:59:34;5.38;;;2.88;;
70588;SDS011;58152;49.202;18.744;2023-03-14T09:01:59;3.28;;;2.60;;
70588;SDS011;58152;49.202;18.744;2023-03-14T09:04:28;4.50;;;2.40;;
70588;SDS011;58152;49.202;18.744;2023-03-14T09:06:54;4.97;;;3.00;;
70588;SDS011;58152;49.202;18.744;2023-03-14T09:09:19;4.53;;;3.03;;
70588;SDS011;58152;49.202;18.744;2023-03-14T09:11:45;4.28;;;2.95;;
70588;SDS011;58152;49.202;18.744;2023-03-14T09:14:10;3.97;;;2.53;;
70588;SDS011;58152;49.202;18.744;2023-03-14T09:16:35;5.57;;;2.85;;
70588;SDS011;58152;49.202;18.744;2023-03-14T09:19:04;5.13;;;2.95;;
70588;SDS011;58152;49.202;18.744;2023-03-14T09:21:30;2.80;;;2.15;;
70588;SDS011;58152;49.202;18.744;2023-03-14T09:23:56;3.13;;;2.20;;
70588;SDS011;58152;49.202;18.744;2023-03-14T09:26:21;2.70;;;2.47;;
70588;SDS011;58152;49.202;18.744;2023-03-14T09:28:47;3.17;;;2.25;;
70588;SDS011;58152;49.202;18.744;2023-03-14T09:31:13;4.68;;;2.28;;
70588;SDS011;58152;49.202;18.744;2023-03-14T09:33:39;3.58;;;2.95;;
70588;SDS011;58152;49.202;18.744;2023-03-14T09:36:05;3.92;;;2.70;;
70588;SDS011;58152;49.202;18.744;2023-03-14T09:38:32;3.60;;;2.30;;
70588;SDS011;58152;49.202;18.744;2023-03-14T09:40:59;3.00;;;2.45;;
70588;SDS011;58152;49.202;18.744;2023-03-14T09:43:27;5.47;;;2.28;;
70588;SDS011;58152;49.202;18.744;2023-03-14T09:45:55;2.90;;;2.08;;
70588;SDS011;58152;49.202;18.744;2023-03-14T09:48:32;4.35;;;2.40;;
70588;SDS011;58152;49.202;18.744;2023-03-14T09:50:59;3.58;;;2.28;;
70588;SDS011;58152;49.202;18.744;2023-03-14T09:56:04;2.72;;;2.35;;
70588;SDS011;58152;49.202;18.744;2023-03-14T09:58:36;3.67;;;2.42;;
70588;SDS011;58152;49.202;18.744;2023-03-14T10:01:02;2.83;;;2.40;;
70588;SDS011;58152;49.202;18.744;2023-03-14T10:03:32;4.00;;;2.20;;
70588;SDS011;58152;49.202;18.744;2023-03-14T10:05:59;4.50;;;2.20;;
70588;SDS011;58152;49.202;18.744;2023-03-14T10:08:25;2.95;;;2.50;;
70588;SDS011;58152;49.202;18.744;2023-03-14T10:10:51;4.35;;;2.17;;
70588;SDS011;58152;49.202;18.744;2023-03-14T10:13:21;2.83;;;2.08;;
70588;SDS011;58152;49.202;18.744;2023-03-14T10:16:08;38.63;;;31.73;;
70588;SDS011;58152;49.202;18.744;2023-03-14T10:18:36;87.30;;;59.67;;
70588;SDS011;58152;49.202;18.744;2023-03-14T10:23:29;13.55;;;9.25;;
70588;SDS011;58152;49.202;18.744;2023-03-14T10:26:07;5.60;;;4.18;;
70588;SDS011;58152;49.202;18.744;2023-03-14T10:28:39;5.30;;;2.53;;
70588;SDS011;58152;49.202;18.744;2023-03-14T10:31:05;4.43;;;2.60;;
70588;SDS011;58152;49.202;18.744;2023-03-14T10:33:32;3.83;;;2.17;;
70588;SDS011;58152;49.202;18.744;2023-03-14T10:36:03;3.15;;;2.15;;
70588;SDS011;58152;49.202;18.744;2023-03-14T10:38:40;3.13;;;1.90;;
70588;SDS011;58152;49.202;18.744;2023-03-14T10:41:16;3.03;;;2.10;;
70588;SDS011;58152;49.202;18.744;2023-03-14T10:43:49;2.72;;;1.98;;
70588;SDS011;58152;49.202;18.744;2023-03-14T10:46:19;4.35;;;2.25;;
70588;SDS011;58152;49.202;18.744;2023-03-14T10:48:45;3.45;;;1.90;;
70588;SDS011;58152;49.202;18.744;2023-03-14T10:53:48;4.38;;;2.25;;
70588;SDS011;58152;49.202;18.744;2023-03-14T10:58:47;2.45;;;1.77;;
70588;SDS011;58152;49.202;18.744;2023-03-14T11:01:57;2.53;;;2.10;;
70588;SDS011;58152;49.202;18.744;2023-03-14T11:07:03;1.90;;;1.70;;
70588;SDS011;58152;49.202;18.744;2023-03-14T11:09:36;5.00;;;2.15;;
70588;SDS011;58152;49.202;18.744;2023-03-14T11:14:54;7.75;;;2.25;;
70588;SDS011;58152;49.202;18.744;2023-03-14T11:20:34;4.80;;;3.53;;
70588;SDS011;58152;49.202;18.744;2023-03-14T11:23:18;5.25;;;2.55;;
70588;SDS011;58152;49.202;18.744;2023-03-14T11:25:50;3.88;;;2.20;;
70588;SDS011;58152;49.202;18.744;2023-03-14T11:28:46;69.93;;;47.90;;
70588;SDS011;58152;49.202;18.744;2023-03-14T11:31:24;24.35;;;17.65;;
70588;SDS011;58152;49.202;18.744;2023-03-14T11:33:56;10.90;;;6.70;;
70588;SDS011;58152;49.202;18.744;2023-03-14T11:36:38;4.88;;;3.08;;
70588;SDS011;58152;49.202;18.744;2023-03-14T11:39:16;6.53;;;3.08;;
70588;SDS011;58152;49.202;18.744;2023-03-14T11:41:47;2.97;;;2.20;;
70588;SDS011;58152;49.202;18.744;2023-03-14T11:44:23;2.55;;;2.10;;
70588;SDS011;58152;49.202;18.744;2023-03-14T11:52:01;4.47;;;2.28;;
70588;SDS011;58152;49.202;18.744;2023-03-14T11:54:44;3.15;;;2.30;;
70588;SDS011;58152;49.202;18.744;2023-03-14T11:57:16;3.03;;;2.55;;
70588;SDS011;58152;49.202;18.744;2023-03-14T12:02:14;4.28;;;2.50;;
70588;SDS011;58152;49.202;18.744;2023-03-14T12:10:26;2.90;;;2.53;;
70588;SDS011;58152;49.202;18.744;2023-03-14T12:12:52;4.60;;;3.75;;
70588;SDS011;58152;49.202;18.744;2023-03-14T12:15:19;3.72;;;2.28;;
70588;SDS011;58152;49.202;18.744;2023-03-14T12:17:46;1.90;;;1.75;;
70588;SDS011;58152;49.202;18.744;2023-03-14T12:20:20;2.45;;;1.92;;
70588;SDS011;58152;49.202;18.744;2023-03-14T12:22:49;3.80;;;2.40;;
70588;SDS011;58152;49.202;18.744;2023-03-14T12:25:17;3.25;;;2.67;;
70588;SDS011;58152;49.202;18.744;2023-03-14T12:30:52;4.75;;;2.08;;
70588;SDS011;58152;49.202;18.744;2023-03-14T12:36:03;2.83;;;2.00;;
70588;SDS011;58152;49.202;18.744;2023-03-14T12:41:03;3.45;;;2.00;;
70588;SDS011;58152;49.202;18.744;2023-03-14T12:43:39;3.65;;;3.00;;
70588;SDS011;58152;49.202;18.744;2023-03-14T12:48:56;3.58;;;2.30;;
70588;SDS011;58152;49.202;18.744;2023-03-14T12:51:39;3.70;;;2.75;;
70588;SDS011;58152;49.202;18.744;2023-03-14T12:59:28;3.95;;;2.38;;
70588;SDS011;58152;49.202;18.744;2023-03-14T13:04:37;3.38;;;2.20;;
70588;SDS011;58152;49.202;18.744;2023-03-14T13:09:53;3.53;;;2.47;;
70588;SDS011;58152;49.202;18.744;2023-03-14T13:12:26;4.35;;;2.50;;
70588;SDS011;58152;49.202;18.744;2023-03-14T13:14:57;4.25;;;2.55;;
70588;SDS011;58152;49.202;18.744;2023-03-14T13:17:32;3.58;;;2.33;;
70588;SDS011;58152;49.202;18.744;2023-03-14T13:20:00;6.30;;;3.08;;
70588;SDS011;58152;49.202;18.744;2023-03-14T13:22:31;5.72;;;2.85;;
70588;SDS011;58152;49.202;18.744;2023-03-14T13:25:03;3.30;;;3.00;;
70588;SDS011;58152;49.202;18.744;2023-03-14T13:27:35;5.55;;;2.90;;
70588;SDS011;58152;49.202;18.744;2023-03-14T13:32:42;4.57;;;2.63;;
70588;SDS011;58152;49.202;18.744;2023-03-14T13:37:58;7.60;;;4.63;;
70588;SDS011;58152;49.202;18.744;2023-03-14T13:40:31;8.00;;;4.78;;
70588;SDS011;58152;49.202;18.744;2023-03-14T13:43:02;4.93;;;4.03;;
70588;SDS011;58152;49.202;18.744;2023-03-14T13:45:44;7.15;;;4.55;;
70588;SDS011;58152;49.202;18.744;2023-03-14T13:48:51;5.80;;;4.85;;
70588;SDS011;58152;49.202;18.744;2023-03-14T13:51:23;8.45;;;5.72;;
70588;SDS011;58152;49.202;18.744;2023-03-14T13:53:51;6.80;;;5.15;;
70588;SDS011;58152;49.202;18.744;2023-03-14T13:56:18;6.93;;;4.93;;
70588;SDS011;58152;49.202;18.744;2023-03-14T13:58:46;7.70;;;5.53;;
70588;SDS011;58152;49.202;18.744;2023-03-14T14:03:43;10.93;;;5.00;;
70588;SDS011;58152;49.202;18.744;2023-03-14T14:06:23;8.88;;;5.13;;
70588;SDS011;58152;49.202;18.744;2023-03-14T14:08:56;8.32;;;5.00;;
70588;SDS011;58152;49.202;18.744;2023-03-14T14:11:36;9.35;;;5.40;;
70588;SDS011;58152;49.202;18.744;2023-03-14T14:14:08;13.23;;;8.75;;
70588;SDS011;58152;49.202;18.744;2023-03-14T14:16:43;13.60;;;9.48;;
70588;SDS011;58152;49.202;18.744;2023-03-14T14:19:10;13.38;;;9.50;;
70588;SDS011;58152;49.202;18.744;2023-03-14T14:21:39;13.73;;;10.20;;
70588;SDS011;58152;49.202;18.744;2023-03-14T14:24:10;15.63;;;11.35;;
70588;SDS011;58152;49.202;18.744;2023-03-14T14:26:46;18.35;;;12.57;;
70588;SDS011;58152;49.202;18.744;2023-03-14T14:32:55;13.32;;;7.80;;
70588;SDS011;58152;49.202;18.744;2023-03-14T14:35:58;11.43;;;6.85;;
70588;SDS011;58152;49.202;18.744;2023-03-14T14:39:31;7.20;;;5.72;;
70588;SDS011;58152;49.202;18.744;2023-03-14T14:42:54;7.90;;;5.72;;
70588;SDS011;58152;49.202;18.744;2023-03-14T14:46:06;6.30;;;4.85;;
70588;SDS011;58152;49.202;18.744;2023-03-14T14:52:03;5.88;;;3.75;;
70588;SDS011;58152;49.202;18.744;2023-03-14T14:54:37;7.53;;;4.75;;
70588;SDS011;58152;49.202;18.744;2023-03-14T14:57:20;7.32;;;3.75;;
70588;SDS011;58152;49.202;18.744;2023-03-14T15:00:03;4.75;;;4.13;;
70588;SDS011;58152;49.202;18.744;2023-03-14T15:05:50;8.65;;;4.47;;
70588;SDS011;58152;49.202;18.744;2023-03-14T15:08:42;8.68;;;5.80;;
70588;SDS011;58152;49.202;18.744;2023-03-14T15:11:16;10.68;;;5.88;;
70588;SDS011;58152;49.202;18.744;2023-03-14T15:13:43;10.95;;;8.02;;
70588;SDS011;58152;49.202;18.744;2023-03-14T15:16:12;12.68;;;8.00;;
70588;SDS011;58152;49.202;18.744;2023-03-14T15:18:40;13.40;;;7.95;;
70588;SDS011;58152;49.202;18.744;2023-03-14T15:21:08;12.02;;;8.93;;
70588;SDS011;58152;49.202;18.744;2023-03-14T15:23:35;11.15;;;8.48;;
70588;SDS011;58152;49.202;18.744;2023-03-14T15:26:00;11.20;;;8.73;;
70588;SDS011;58152;49.202;18.744;2023-03-14T15:28:27;10.70;;;7.75;;
70588;SDS011;58152;49.202;18.744;2023-03-14T15:30:55;9.95;;;6.85;;
70588;SDS011;58152;49.202;18.744;2023-03-14T15:33:22;8.05;;;6.32;;
70588;SDS011;58152;49.202;18.744;2023-03-14T15:35:49;8.85;;;6.38;;
70588;SDS011;58152;49.202;18.744;2023-03-14T15:38:15;8.45;;;6.15;;
70588;SDS011;58152;49.202;18.744;2023-03-14T15:40:46;9.15;;;6.35;;
70588;SDS011;58152;49.202;18.744;2023-03-14T15:43:15;8.82;;;6.35;;
70588;SDS011;58152;49.202;18.744;2023-03-14T15:45:42;8.05;;;5.47;;
70588;SDS011;58152;49.202;18.744;2023-03-14T15:48:18;7.07;;;4.65;;
70588;SDS011;58152;49.202;18.744;2023-03-14T15:50:54;5.88;;;4.38;;
70588;SDS011;58152;49.202;18.744;2023-03-14T15:53:19;7.47;;;5.47;;
70588;SDS011;58152;49.202;18.744;2023-03-14T15:55:45;8.30;;;6.55;;
70588;SDS011;58152;49.202;18.744;2023-03-14T15:58:15;9.50;;;7.03;;
70588;SDS011;58152;49.202;18.744;2023-03-14T16:00:41;12.00;;;8.15;;
70588;SDS011;58152;49.202;18.744;2023-03-14T16:03:07;11.43;;;6.75;;
70588;SDS011;58152;49.202;18.744;2023-03-14T16:05:32;8.60;;;6.15;;
70588;SDS011;58152;49.202;18.744;2023-03-14T16:07:58;8.45;;;6.20;;
70588;SDS011;58152;49.202;18.744;2023-03-14T16:10:28;7.88;;;6.10;;
70588;SDS011;58152;49.202;18.744;2023-03-14T16:12:54;7.90;;;5.30;;
70588;SDS011;58152;49.202;18.744;2023-03-14T16:15:19;8.13;;;5.53;;
70588;SDS011;58152;49.202;18.744;2023-03-14T16:17:45;6.40;;;5.35;;
70588;SDS011;58152;49.202;18.744;2023-03-14T16:20:11;6.53;;;5.25;;
70588;SDS011;58152;49.202;18.744;2023-03-14T16:22:37;7.32;;;5.18;;
70588;SDS011;58152;49.202;18.744;2023-03-14T16:25:03;7.70;;;5.03;;
70588;SDS011;58152;49.202;18.744;2023-03-14T16:27:30;6.72;;;5.35;;
70588;SDS011;58152;49.202;18.744;2023-03-14T16:29:56;8.50;;;5.35;;
70588;SDS011;58152;49.202;18.744;2023-03-14T16:32:22;6.47;;;4.85;;
70588;SDS011;58152;49.202;18.744;2023-03-14T16:34:48;5.43;;;4.85;;
70588;SDS011;58152;49.202;18.744;2023-03-14T16:37:14;6.40;;;5.25;;
70588;SDS011;58152;49.202;18.744;2023-03-14T16:39:47;5.40;;;4.72;;
70588;SDS011;58152;49.202;18.744;2023-03-14T16:42:15;5.15;;;4.03;;
70588;SDS011;58152;49.202;18.744;2023-03-14T16:44:43;5.05;;;4.55;;
70588;SDS011;58152;49.202;18.744;2023-03-14T16:47:09;6.30;;;4.57;;
70588;SDS011;58152;49.202;18.744;2023-03-14T16:49:35;5.88;;;4.22;;
70588;SDS011;58152;49.202;18.744;2023-03-14T16:52:00;4.90;;;3.80;;
70588;SDS011;58152;49.202;18.744;2023-03-14T16:54:26;5.10;;;3.00;;
70588;SDS011;58152;49.202;18.744;2023-03-14T16:56:52;2.72;;;2.30;;
70588;SDS011;58152;49.202;18.744;2023-03-14T16:59:18;3.97;;;2.95;;
70588;SDS011;58152;49.202;18.744;2023-03-14T17:01:44;2.35;;;2.15;;
70588;SDS011;58152;49.202;18.744;2023-03-14T17:04:10;3.17;;;2.47;;
70588;SDS011;58152;49.202;18.744;2023-03-14T17:06:36;3.60;;;2.25;;
70588;SDS011;58152;49.202;18.744;2023-03-14T17:09:02;2.70;;;2.22;;
70588;SDS011;58152;49.202;18.744;2023-03-14T17:11:30;2.67;;;2.47;;
70588;SDS011;58152;49.202;18.744;2023-03-14T17:14:00;2.47;;;2.08;;
70588;SDS011;58152;49.202;18.744;2023-03-14T17:16:26;2.40;;;2.20;;
70588;SDS011;58152;49.202;18.744;2023-03-14T17:18:52;3.90;;;3.42;;
70588;SDS011;58152;49.202;18.744;2023-03-14T17:21:17;3.42;;;2.80;;
70588;SDS011;58152;49.202;18.744;2023-03-14T17:23:43;3.20;;;2.90;;
70588;SDS011;58152;49.202;18.744;2023-03-14T17:26:08;3.10;;;2.78;;
70588;SDS011;58152;49.202;18.744;2023-03-14T17:28:37;4.75;;;3.58;;
70588;SDS011;58152;49.202;18.744;2023-03-14T17:31:03;4.85;;;3.90;;
70588;SDS011;58152;49.202;18.744;2023-03-14T17:33:30;4.80;;;4.03;;
70588;SDS011;58152;49.202;18.744;2023-03-14T17:35:56;5.40;;;3.63;;
70588;SDS011;58152;49.202;18.744;2023-03-14T17:38:22;4.28;;;3.60;;
70588;SDS011;58152;49.202;18.744;2023-03-14T17:40:51;4.32;;;3.72;;
70588;SDS011;58152;49.202;18.744;2023-03-14T17:43:18;5.10;;;4.28;;
70588;SDS011;58152;49.202;18.744;2023-03-14T17:45:46;5.40;;;4.50;;
70588;SDS011;58152;49.202;18.744;2023-03-14T17:48:11;6.15;;;4.78;;
70588;SDS011;58152;49.202;18.744;2023-03-14T17:50:38;8.10;;;4.38;;
70588;SDS011;58152;49.202;18.744;2023-03-14T17:53:04;5.05;;;4.28;;
70588;SDS011;58152;49.202;18.744;2023-03-14T17:55:29;5.90;;;4.95;;
70588;SDS011;58152;49.202;18.744;2023-03-14T17:57:57;4.85;;;4.25;;
70588;SDS011;58152;49.202;18.744;2023-03-14T18:00:22;4.53;;;4.13;;
70588;SDS011;58152;49.202;18.744;2023-03-14T18:02:49;5.25;;;4.68;;
70588;SDS011;58152;49.202;18.744;2023-03-14T18:05:15;7.47;;;5.05;;
70588;SDS011;58152;49.202;18.744;2023-03-14T18:07:41;6.60;;;5.57;;
70588;SDS011;58152;49.202;18.744;2023-03-14T18:10:07;7.78;;;5.43;;
70588;SDS011;58152;49.202;18.744;2023-03-14T18:12:34;7.18;;;5.28;;
70588;SDS011;58152;49.202;18.744;2023-03-14T18:15:01;6.63;;;5.53;;
70588;SDS011;58152;49.202;18.744;2023-03-14T18:18:10;7.07;;;5.70;;
70588;SDS011;58152;49.202;18.744;2023-03-14T18:20:36;11.85;;;6.10;;
70588;SDS011;58152;49.202;18.744;2023-03-14T18:23:01;7.78;;;6.20;;
70588;SDS011;58152;49.202;18.744;2023-03-14T18:25:32;9.90;;;7.25;;
70588;SDS011;58152;49.202;18.744;2023-03-14T18:27:57;12.05;;;7.95;;
70588;SDS011;58152;49.202;18.744;2023-03-14T18:30:23;10.60;;;7.38;;
70588;SDS011;58152;49.202;18.744;2023-03-14T18:32:48;9.75;;;7.03;;
70588;SDS011;58152;49.202;18.744;2023-03-14T18:35:17;8.73;;;7.15;;
70588;SDS011;58152;49.202;18.744;2023-03-14T18:37:42;10.23;;;7.88;;
70588;SDS011;58152;49.202;18.744;2023-03-14T18:40:09;9.60;;;7.30;;
70588;SDS011;58152;49.202;18.744;2023-03-14T18:42:37;10.82;;;7.80;;
70588;SDS011;58152;49.202;18.744;2023-03-14T18:45:03;7.90;;;6.45;;
70588;SDS011;58152;49.202;18.744;2023-03-14T18:47:29;6.97;;;5.70;;
70588;SDS011;58152;49.202;18.744;2023-03-14T18:49:55;13.27;;;7.47;;
70588;SDS011;58152;49.202;18.744;2023-03-14T18:52:21;11.63;;;7.72;;
70588;SDS011;58152;49.202;18.744;2023-03-14T18:54:52;9.30;;;7.05;;
70588;SDS011;58152;49.202;18.744;2023-03-14T19:00:10;15.23;;;10.95;;
70588;SDS011;58152;49.202;18.744;2023-03-14T19:02:42;12.77;;;9.85;;
70588;SDS011;58152;49.202;18.744;2023-03-14T19:05:23;12.82;;;8.82;;
70588;SDS011;58152;49.202;18.744;2023-03-14T19:08:12;7.55;;;6.32;;
70588;SDS011;58152;49.202;18.744;2023-03-14T19:10:38;7.95;;;6.18;;
70588;SDS011;58152;49.202;18.744;2023-03-14T19:13:04;8.27;;;6.03;;
70588;SDS011;58152;49.202;18.744;2023-03-14T19:15:29;7.97;;;5.95;;
70588;SDS011;58152;49.202;18.744;2023-03-14T19:17:55;7.60;;;5.32;;
70588;SDS011;58152;49.202;18.744;2023-03-14T19:20:20;6.25;;;4.93;;
70588;SDS011;58152;49.202;18.744;2023-03-14T19:22:46;4.80;;;4.32;;
70588;SDS011;58152;49.202;18.744;2023-03-14T19:25:15;4.25;;;3.83;;
70588;SDS011;58152;49.202;18.744;2023-03-14T19:27:40;7.18;;;4.95;;
70588;SDS011;58152;49.202;18.744;2023-03-14T19:30:06;6.55;;;5.30;;
70588;SDS011;58152;49.202;18.744;2023-03-14T19:32:35;9.55;;;6.25;;
70588;SDS011;58152;49.202;18.744;2023-03-14T19:35:07;8.02;;;5.40;;
70588;SDS011;58152;49.202;18.744;2023-03-14T19:37:33;7.80;;;6.18;;
70588;SDS011;58152;49.202;18.744;2023-03-14T19:40:11;7.60;;;5.88;;
70588;SDS011;58152;49.202;18.744;2023-03-14T19:42:42;9.18;;;5.55;;
70588;SDS011;58152;49.202;18.744;2023-03-14T19:45:16;8.63;;;6.15;;
70588;SDS011;58152;49.202;18.744;2023-03-14T19:47:50;11.13;;;7.65;;
70588;SDS011;58152;49.202;18.744;2023-03-14T19:50:33;12.30;;;8.98;;
70588;SDS011;58152;49.202;18.744;2023-03-14T19:53:00;10.73;;;8.63;;
70588;SDS011;58152;49.202;18.744;2023-03-14T19:55:31;11.40;;;8.77;;
70588;SDS011;58152;49.202;18.744;2023-03-14T19:58:01;10.45;;;7.97;;
70588;SDS011;58152;49.202;18.744;2023-03-14T20:00:29;8.95;;;7.03;;
70588;SDS011;58152;49.202;18.744;2023-03-14T20:02:58;8.32;;;7.38;;
70588;SDS011;58152;49.202;18.744;2023-03-14T20:05:23;8.90;;;6.43;;
70588;SDS011;58152;49.202;18.744;2023-03-14T20:11:09;8.23;;;6.15;;
70588;SDS011;58152;49.202;18.744;2023-03-14T20:13:38;8.07;;;5.55;;
70588;SDS011;58152;49.202;18.744;2023-03-14T20:16:05;7.65;;;6.15;;
70588;SDS011;58152;49.202;18.744;2023-03-14T20:35:44;12.98;;;9.20;;
70588;SDS011;58152;49.202;18.744;2023-03-14T20:38:16;12.60;;;9.05;;
70588;SDS011;58152;49.202;18.744;2023-03-14T20:40:44;46.38;;;39.75;;
70588;SDS011;58152;49.202;18.744;2023-03-14T20:43:11;88.90;;;69.70;;
70588;SDS011;58152;49.202;18.744;2023-03-14T20:45:42;77.85;;;56.92;;
70588;SDS011;58152;49.202;18.744;2023-03-14T20:48:08;49.55;;;35.90;;
70588;SDS011;58152;49.202;18.744;2023-03-14T20:58:33;9.00;;;7.32;;
70588;SDS011;58152;49.202;18.744;2023-03-14T21:09:34;8.50;;;6.55;;
70588;SDS011;58152;49.202;18.744;2023-03-14T21:12:15;9.57;;;7.47;;
70588;SDS011;58152;49.202;18.744;2023-03-14T21:14:41;11.73;;;9.65;;
70588;SDS011;58152;49.202;18.744;2023-03-14T21:17:12;46.00;;;31.90;;
70588;SDS011;58152;49.202;18.744;2023-03-14T21:19:38;70.97;;;48.28;;
70588;SDS011;58152;49.202;18.744;2023-03-14T21:26:08;17.38;;;13.52;;
70588;SDS011;58152;49.202;18.744;2023-03-14T21:32:27;8.77;;;7.40;;
70588;SDS011;58152;49.202;18.744;2023-03-14T21:35:00;9.98;;;8.02;;
70588;SDS011;58152;49.202;18.744;2023-03-14T21:37:28;9.27;;;6.97;;
70588;SDS011;58152;49.202;18.744;2023-03-14T21:39:53;11.25;;;8.13;;
70588;SDS011;58152;49.202;18.744;2023-03-14T21:42:20;9.57;;;8.48;;
70588;SDS011;58152;49.202;18.744;2023-03-14T21:44:47;9.55;;;8.20;;
70588;SDS011;58152;49.202;18.744;2023-03-14T21:47:19;12.68;;;9.57;;
70588;SDS011;58152;49.202;18.744;2023-03-14T21:49:47;11.32;;;9.02;;
70588;SDS011;58152;49.202;18.744;2023-03-14T21:52:18;11.60;;;9.30;;
70588;SDS011;58152;49.202;18.744;2023-03-14T21:54:44;11.40;;;9.18;;
70588;SDS011;58152;49.202;18.744;2023-03-14T21:57:17;9.95;;;7.50;;
70588;SDS011;58152;49.202;18.744;2023-03-14T21:59:44;11.50;;;9.27;;
70588;SDS011;58152;49.202;18.744;2023-03-14T22:02:12;9.32;;;8.13;;
70588;SDS011;58152;49.202;18.744;2023-03-14T22:04:44;12.30;;;9.20;;
70588;SDS011;58152;49.202;18.744;2023-03-14T22:07:13;14.02;;;9.32;;
70588;SDS011;58152;49.202;18.744;2023-03-14T22:09:44;13.15;;;10.52;;
70588;SDS011;58152;49.202;18.744;2023-03-14T22:12:13;13.25;;;10.75;;
70588;SDS011;58152;49.202;18.744;2023-03-14T22:14:43;15.32;;;9.35;;
70588;SDS011;58152;49.202;18.744;2023-03-14T22:17:14;13.98;;;9.63;;
70588;SDS011;58152;49.202;18.744;2023-03-14T22:19:45;12.82;;;9.23;;
70588;SDS011;58152;49.202;18.744;2023-03-14T22:22:12;12.38;;;9.63;;
70588;SDS011;58152;49.202;18.744;2023-03-14T22:24:39;10.50;;;8.07;;
70588;SDS011;58152;49.202;18.744;2023-03-14T22:27:08;26.30;;;18.45;;
70588;SDS011;58152;49.202;18.744;2023-03-14T22:29:39;36.28;;;26.83;;
70588;SDS011;58152;49.202;18.744;2023-03-14T22:32:14;64.53;;;48.08;;
70588;SDS011;58152;49.202;18.744;2023-03-14T22:34:44;31.92;;;23.58;;
70588;SDS011;58152;49.202;18.744;2023-03-14T22:37:10;17.25;;;13.48;;
70588;SDS011;58152;49.202;18.744;2023-03-14T22:39:44;13.73;;;9.52;;
70588;SDS011;58152;49.202;18.744;2023-03-14T22:42:10;13.43;;;10.10;;
70588;SDS011;58152;49.202;18.744;2023-03-14T22:57:54;10.55;;;6.78;;
70588;SDS011;58152;49.202;18.744;2023-03-14T23:00:31;6.82;;;5.22;;
70588;SDS011;58152;49.202;18.744;2023-03-14T23:02:57;5.30;;;4.63;;
70588;SDS011;58152;49.202;18.744;2023-03-14T23:26:11;5.72;;;4.32;;
70588;SDS011;58152;49.202;18.744;2023-03-14T23:36:27;2.38;;;2.17;;
70588;SDS011;58152;49.202;18.744;2023-03-14T23:39:06;57.78;;;48.40;;
70588;SDS011;58152;49.202;18.744;2023-03-14T23:41:37;64.60;;;46.50;;
70588;SDS011;58152;49.202;18.744;2023-03-14T23:44:02;34.05;;;25.85;;
70588;SDS011;58152;49.202;18.744;2023-03-14T23:46:54;13.02;;;10.35;;
70588;SDS011;58152;49.202;18.744;2023-03-14T23:49:21;6.18;;;5.13;;
70588;SDS011;58152;49.202;18.744;2023-03-14T23:51:47;3.53;;;2.65;;
70588;SDS011;58152;49.202;18.744;2023-03-14T23:54:13;2.25;;;2.05;;
70588;SDS011;58152;49.202;18.744;2023-03-14T23:56:38;2.15;;;1.70;;
70588;SDS011;58152;49.202;18.744;2023-03-14T23:59:05;3.55;;;1.63;;
